Time;durP1;ratioP1;P1;durP2;ratioP2;P2;SDS_P1;SDS_P2;PMS_P1;PMS_P2;Temp;Humidity;BMP_temperature;BMP_pressure;BME280_temperature;BME280_humidity;BME280_pressure;Samples;Min_cycle;Max_cycle;Signal;HPM_P1;HPM_P2
2022/06/09 00:01:20;;;;;;;3.27;2.50;;;;;;;17.38;97.22;97588.31;4224891;28;20718;-86
2022/06/09 00:03:26;;;;;;;4.90;2.77;;;;;;;17.38;96.33;97587.47;4231193;28;21054;-86
2022/06/09 00:05:31;;;;;;;4.17;2.60;;;;;;;17.40;96.16;97588.16;4210982;28;21214;-86
2022/06/09 00:07:35;;;;;;;3.63;2.50;;;;;;;17.38;96.27;97585.69;4218374;28;20625;-86
2022/06/09 00:09:42;;;;;;;4.00;2.50;;;;;;;17.38;96.01;97584.84;4209368;28;21002;-86
2022/06/09 00:11:49;;;;;;;5.10;3.60;;;;;;;17.38;97.62;97584.84;4221529;28;20710;-86
2022/06/09 00:14:08;;;;;;;3.57;2.80;;;;;;;17.37;97.88;97591.94;4217693;28;20658;-87
2022/06/09 00:16:13;;;;;;;3.30;2.60;;;;;;;17.36;97.56;97598.16;4199257;28;20678;-87
2022/06/09 00:18:18;;;;;;;4.70;2.60;;;;;;;17.36;98.23;97600.00;4212540;28;20644;-87
2022/06/09 00:20:22;;;;;;;6.57;2.63;;;;;;;17.33;98.35;97593.22;4215649;28;21327;-87
2022/06/09 00:22:25;;;;;;;4.33;3.07;;;;;;;17.33;97.77;97598.50;4214339;28;21267;-87
2022/06/09 00:24:29;;;;;;;3.80;2.60;;;;;;;17.33;98.10;97611.66;4213732;28;21193;-87
2022/06/09 00:26:32;;;;;;;3.30;2.87;;;;;;;17.33;98.17;97597.66;4227537;28;20637;-87
2022/06/09 00:28:35;;;;;;;3.63;2.90;;;;;;;17.33;97.87;97605.59;4208287;28;20676;-86
2022/06/09 00:30:39;;;;;;;4.30;3.00;;;;;;;17.37;98.43;97614.84;4218823;28;20660;-86
2022/06/09 00:32:42;;;;;;;3.57;3.00;;;;;;;17.37;98.91;97609.56;4216953;28;20646;-86
2022/06/09 00:34:46;;;;;;;3.40;3.10;;;;;;;17.39;98.13;97607.59;4209384;28;20720;-86
2022/06/09 00:36:50;;;;;;;3.70;2.70;;;;;;;17.38;97.97;97617.31;4207899;28;21207;-87
2022/06/09 00:38:53;;;;;;;3.77;2.93;;;;;;;17.40;98.48;97609.25;4219522;28;20631;-87
2022/06/09 00:40:57;;;;;;;4.30;2.90;;;;;;;17.40;98.25;97603.97;4218817;28;20752;-87
2022/06/09 00:43:01;;;;;;;4.97;3.07;;;;;;;17.40;98.38;97614.53;4221078;28;20630;-87
2022/06/09 00:45:30;;;;;;;4.30;3.00;;;;;;;17.40;98.94;97619.81;4212850;28;20632;-87
2022/06/09 00:47:34;;;;;;;4.93;3.27;;;;;;;17.40;98.71;97617.16;4179061;28;20635;-86
2022/06/09 00:49:40;;;;;;;5.17;3.20;;;;;;;17.39;98.50;97613.69;4204378;28;20634;-86
2022/06/09 00:51:47;;;;;;;8.10;3.30;;;;;;;17.39;98.25;97610.22;4210307;28;20626;-87
2022/06/09 00:54:03;;;;;;;4.37;3.30;;;;;;;17.40;97.82;97611.88;4214086;28;20725;-87
2022/06/09 00:56:07;;;;;;;4.10;3.00;;;;;;;17.40;98.42;97611.88;4201727;28;20623;-86
2022/06/09 00:58:13;;;;;;;6.53;3.53;;;;;;;17.38;99.07;97617.31;4228401;28;20625;-87
2022/06/09 01:00:21;;;;;;;8.30;4.80;;;;;;;17.36;98.71;97616.63;4207269;28;20656;-85
2022/06/09 01:02:24;;;;;;;4.60;3.37;;;;;;;17.34;98.90;97613.34;4218806;28;20633;-86
2022/06/09 01:04:28;;;;;;;5.10;3.10;;;;;;;17.35;98.19;97606.25;4226031;28;20676;-86
2022/06/09 01:06:33;;;;;;;8.43;3.67;;;;;;;17.34;98.83;97612.53;4217244;28;20628;-87
2022/06/09 01:08:44;;;;;;;9.23;3.53;;;;;;;17.33;97.89;97613.50;4210551;28;20648;-87
2022/06/09 01:10:47;;;;;;;11.17;3.73;;;;;;;17.33;98.33;97608.22;4221300;28;20726;-87
2022/06/09 01:12:50;;;;;;;4.80;2.80;;;;;;;17.34;98.47;97612.53;4202289;28;20639;-86
2022/06/09 01:15:01;;;;;;;5.30;3.03;;;;;;;17.33;99.03;97605.59;4216307;28;20642;-87
2022/06/09 01:17:11;;;;;;;4.57;3.20;;;;;;;17.36;97.67;97607.91;4205027;28;20623;-87
2022/06/09 01:19:28;;;;;;;6.00;3.20;;;;;;;17.38;98.83;97605.91;4211594;28;20838;-87
2022/06/09 01:21:56;;;;;;;5.60;3.17;;;;;;;17.40;97.88;97611.88;4217908;28;20770;-88
2022/06/09 01:24:18;;;;;;;4.20;2.90;;;;;;;17.39;97.45;97612.88;4205439;28;21207;-87
2022/06/09 01:26:36;;;;;;;6.10;3.07;;;;;;;17.39;97.61;97615.50;4203065;28;21190;-87
2022/06/09 01:29:15;;;;;;;3.50;2.60;;;;;;;17.37;97.43;97617.47;4203886;28;20718;-87
2022/06/09 01:31:27;;;;;;;3.40;2.60;;;;;;;17.30;97.95;97611.97;4209452;28;20714;-88
2022/06/09 01:33:36;;;;;;;4.70;2.77;;;;;;;17.29;96.85;97614.78;4213156;28;21168;-88
2022/06/09 01:35:43;;;;;;;4.20;2.80;;;;;;;17.29;97.19;97614.78;4199708;28;20996;-87
2022/06/09 01:37:48;;;;;;;4.37;2.67;;;;;;;17.28;97.43;97618.41;4203535;28;20679;-87
2022/06/09 01:39:54;;;;;;;3.80;2.40;;;;;;;17.28;97.84;97618.41;4219996;28;21164;-87
2022/06/09 01:41:58;;;;;;;2.70;2.20;;;;;;;17.29;97.61;97620.91;4213018;28;20676;-87
2022/06/09 01:44:01;;;;;;;2.87;2.33;;;;;;;17.28;97.78;97621.88;4220083;28;20722;-87
2022/06/09 01:46:08;;;;;;;2.83;2.17;;;;;;;17.27;96.95;97620.22;4208935;28;20631;-87
2022/06/09 01:48:14;;;;;;;4.03;2.00;;;;;;;17.28;97.57;97621.88;4216186;28;20621;-87
2022/06/09 01:50:25;;;;;;;3.40;2.70;;;;;;;17.27;97.81;97625.47;4213814;28;21192;-87
2022/06/09 01:52:29;;;;;;;3.50;2.40;;;;;;;17.26;97.85;97633.53;4203627;28;20637;-87
2022/06/09 01:54:36;;;;;;;4.07;2.50;;;;;;;17.23;98.36;97626.78;4225622;28;20721;-88
2022/06/09 01:56:43;;;;;;;4.00;2.03;;;;;;;17.25;97.95;97632.72;4211888;28;20667;-87
2022/06/09 01:58:51;;;;;;;5.63;1.93;;;;;;;17.23;96.77;97628.59;4222529;28;20714;-88
2022/06/09 02:00:56;;;;;;;2.57;1.60;;;;;;;17.20;97.71;97629.75;4216488;28;21216;-87
2022/06/09 02:03:03;;;;;;;2.67;1.50;;;;;;;17.20;96.87;97634.13;4211239;28;20635;-87
2022/06/09 02:05:12;;;;;;;2.50;1.70;;;;;;;17.18;97.63;97630.84;4209530;28;20680;-87
2022/06/09 02:07:16;;;;;;;2.20;1.43;;;;;;;17.16;98.98;97628.34;4212549;28;20632;-87
2022/06/09 02:09:20;;;;;;;3.10;1.80;;;;;;;17.16;97.45;97624.91;4209171;28;20646;-87
2022/06/09 02:11:23;;;;;;;2.20;1.73;;;;;;;17.15;97.52;97633.78;4218730;28;20621;-87
2022/06/09 02:13:29;;;;;;;2.27;1.53;;;;;;;17.15;97.46;97631.16;4219394;28;20630;-88
2022/06/09 02:15:36;;;;;;;2.80;1.70;;;;;;;17.14;96.64;97637.44;4207641;28;20674;-87
2022/06/09 02:17:43;;;;;;;5.60;2.10;;;;;;;17.15;97.60;97636.41;4207907;28;20621;-87
2022/06/09 02:19:48;;;;;;;4.33;2.00;;;;;;;17.13;98.63;97639.22;4217696;28;20740;-87
2022/06/09 02:21:53;;;;;;;2.63;2.10;;;;;;;17.13;97.63;97648.94;4226219;28;20697;-87
2022/06/09 02:23:56;;;;;;;2.70;2.30;;;;;;;17.12;97.91;97647.28;4221232;28;20612;-87
2022/06/09 02:26:18;;;;;;;4.53;2.23;;;;;;;17.10;98.88;97646.63;4226927;28;20613;-87
2022/06/09 02:28:22;;;;;;;5.00;2.57;;;;;;;17.09;99.16;97644.94;4217698;28;20602;-87
2022/06/09 02:30:25;;;;;;;4.43;1.73;;;;;;;17.08;98.72;97646.78;4219283;28;20630;-87
2022/06/09 02:32:48;;;;;;;2.87;1.80;;;;;;;17.10;97.38;97651.88;4225206;28;20618;-87
2022/06/09 02:34:51;;;;;;;3.20;1.90;;;;;;;17.08;98.02;97648.59;4219888;28;20670;-87
2022/06/09 02:36:56;;;;;;;2.40;1.80;;;;;;;17.06;98.38;97650.53;4204582;28;20619;-88
2022/06/09 02:38:59;;;;;;;3.07;1.80;;;;;;;17.05;98.72;97655.00;4199774;28;20677;-87
2022/06/09 02:41:03;;;;;;;3.13;1.60;;;;;;;17.07;97.65;97652.19;4211647;28;21080;-87
2022/06/09 02:43:06;;;;;;;3.40;2.00;;;;;;;17.05;97.46;97656.81;4214488;28;20633;-88
2022/06/09 02:45:11;;;;;;;2.03;1.70;;;;;;;17.03;97.50;97658.75;4216824;28;20611;-86
2022/06/09 02:47:14;;;;;;;3.30;1.93;;;;;;;17.04;97.66;97660.41;4211616;28;20722;-86
2022/06/09 02:49:17;;;;;;;2.90;1.77;;;;;;;17.01;97.34;97651.00;4222796;28;20658;-87
2022/06/09 02:51:25;;;;;;;3.33;1.50;;;;;;;17.00;97.28;97654.63;4212402;28;21210;-87
2022/06/09 02:53:30;;;;;;;2.10;1.73;;;;;;;17.01;96.89;97650.19;4217639;28;20993;-87
2022/06/09 02:55:33;;;;;;;4.20;1.77;;;;;;;16.99;97.92;97657.41;4202226;28;20652;-87
2022/06/09 02:57:37;;;;;;;2.73;1.60;;;;;;;16.99;97.03;97657.41;4201712;28;21050;-87
2022/06/09 02:59:40;;;;;;;2.50;1.60;;;;;;;16.98;97.21;97660.22;4205628;28;20644;-87
2022/06/09 03:01:43;;;;;;;2.90;1.40;;;;;;;16.92;96.15;97655.56;4202433;28;20650;-87
2022/06/09 03:03:46;;;;;;;3.70;1.70;;;;;;;16.91;97.50;97657.34;4210650;28;20642;-87
2022/06/09 03:05:50;;;;;;;2.77;1.57;;;;;;;16.90;97.57;97660.13;4207623;28;20675;-87
2022/06/09 03:07:53;;;;;;;2.30;1.43;;;;;;;16.89;98.45;97661.13;4208310;28;20625;-87
2022/06/09 03:09:57;;;;;;;2.33;1.30;;;;;;;16.88;96.94;97664.75;4203542;28;20623;-88
2022/06/09 03:12:00;;;;;;;2.37;1.40;;;;;;;16.87;96.85;97670.97;4209530;28;20638;-87
2022/06/09 03:14:04;;;;;;;1.70;1.17;;;;;;;16.86;96.80;97671.97;4207523;28;20642;-87
2022/06/09 03:16:08;;;;;;;2.53;1.50;;;;;;;16.83;97.09;97670.47;4225404;28;20633;-87
2022/06/09 03:18:11;;;;;;;2.63;1.50;;;;;;;16.83;96.95;97674.91;4211348;28;20668;-87
2022/06/09 03:20:17;;;;;;;3.83;1.50;;;;;;;16.80;97.95;97676.03;4201289;28;20652;-87
2022/06/09 03:22:20;;;;;;;4.53;1.20;;;;;;;16.80;98.46;97683.94;4206220;28;21047;-87
2022/06/09 03:24:23;;;;;;;3.33;1.43;;;;;;;16.80;97.91;97677.84;4221375;28;20738;-87
2022/06/09 03:26:27;;;;;;;2.10;1.40;;;;;;;16.80;98.22;97689.22;4220017;28;21101;-87
2022/06/09 03:28:31;;;;;;;3.77;1.60;;;;;;;16.79;97.42;97686.72;4203224;28;20627;-87
2022/06/09 03:30:34;;;;;;;2.80;1.67;;;;;;;16.78;97.17;97691.19;4205330;28;20628;-87
2022/06/09 03:32:37;;;;;;;3.00;1.60;;;;;;;16.79;97.70;97692.00;4225395;28;20618;-87
2022/06/09 03:34:40;;;;;;;2.03;1.50;;;;;;;16.80;97.26;97691.03;4210569;28;20732;-87
2022/06/09 03:36:44;;;;;;;6.37;1.60;;;;;;;16.79;97.63;97690.19;4216456;28;20655;-87
2022/06/09 03:38:47;;;;;;;6.97;1.40;;;;;;;16.78;97.96;97687.69;4203464;28;21286;-87
2022/06/09 03:40:50;;;;;;;2.27;1.57;;;;;;;16.77;98.71;97688.69;4218170;28;20682;-87
2022/06/09 03:42:54;;;;;;;2.93;1.87;;;;;;;16.77;97.40;97694.78;4226422;28;20663;-87
2022/06/09 03:45:03;;;;;;;1.90;1.47;;;;;;;16.76;98.83;97698.38;4217389;28;20642;-87
2022/06/09 03:47:07;;;;;;;3.07;1.60;;;;;;;16.75;99.07;97702.03;4218295;28;20630;-87
2022/06/09 03:49:11;;;;;;;2.47;1.40;;;;;;;16.77;97.56;97700.06;4210979;28;20630;-87
2022/06/09 03:51:14;;;;;;;2.70;1.60;;;;;;;16.76;97.60;97706.28;4240777;28;20996;-86
2022/06/09 03:53:17;;;;;;;2.20;1.47;;;;;;;16.76;97.72;97702.84;4214474;28;20664;-87
2022/06/09 03:55:21;;;;;;;6.00;1.83;;;;;;;16.76;99.10;97705.47;4207408;28;20630;-87
2022/06/09 03:57:25;;;;;;;2.50;1.70;;;;;;;16.73;98.08;97706.63;4214665;28;20616;-87
2022/06/09 03:59:30;;;;;;;4.10;1.93;;;;;;;16.74;98.49;97716.16;4212188;28;20618;-87
2022/06/09 04:01:33;;;;;;;3.87;2.10;;;;;;;16.75;98.45;97715.19;4226456;28;20675;-87
2022/06/09 04:03:36;;;;;;;4.07;1.97;;;;;;;16.76;98.43;97716.00;4207324;28;20715;-87
2022/06/09 04:05:39;;;;;;;3.80;1.80;;;;;;;16.75;98.59;97720.47;4201879;28;20681;-87
2022/06/09 04:07:43;;;;;;;3.93;2.00;;;;;;;16.78;97.58;97721.94;4222795;28;21257;-87
2022/06/09 04:10:01;;;;;;;3.00;1.83;;;;;;;16.78;98.77;97720.16;4198292;28;20660;-87
2022/06/09 04:12:05;;;;;;;2.33;1.90;;;;;;;16.77;97.52;97720.31;4195176;28;20638;-87
2022/06/09 04:14:14;;;;;;;3.13;1.70;;;;;;;16.77;97.27;97722.94;4193318;28;20627;-87
2022/06/09 04:16:23;;;;;;;3.40;1.80;;;;;;;16.77;97.87;97723.75;4180446;28;21199;-87
2022/06/09 04:18:27;;;;;;;6.47;2.17;;;;;;;16.77;98.97;97715.84;4189310;28;20623;-88
2022/06/09 04:20:30;;;;;;;5.70;2.23;;;;;;;16.77;98.66;97725.56;4164248;28;20626;-87
2022/06/09 04:22:33;;;;;;;4.50;2.00;;;;;;;16.76;97.84;97734.44;4192198;28;20706;-87
2022/06/09 04:24:36;;;;;;;5.07;2.00;;;;;;;16.79;97.76;97731.50;4174703;28;20638;-87
2022/06/09 04:26:41;;;;;;;2.87;2.17;;;;;;;16.81;98.65;97724.28;4180184;28;20819;-87
2022/06/09 04:28:44;;;;;;;4.60;2.47;;;;;;;16.83;99.50;97733.69;4188491;28;20629;-87
2022/06/09 04:30:48;;;;;;;3.50;1.90;;;;;;;16.85;98.33;97729.09;4197622;28;20636;-86
2022/06/09 04:32:53;;;;;;;4.13;2.33;;;;;;;16.87;98.32;97732.41;4179076;28;20631;-87
2022/06/09 04:34:56;;;;;;;4.93;2.00;;;;;;;16.89;98.61;97734.91;4179897;28;20662;-87
2022/06/09 04:36:59;;;;;;;4.00;2.00;;;;;;;16.92;97.29;97737.22;4178565;28;20742;-87
2022/06/09 04:39:03;;;;;;;3.17;2.10;;;;;;;16.94;98.50;97741.34;4176949;28;21295;-86
2022/06/09 04:41:09;;;;;;;4.27;1.90;;;;;;;16.96;97.96;97742.06;4206176;28;20625;-86
2022/06/09 04:43:13;;;;;;;4.23;2.07;;;;;;;16.98;98.79;97741.91;4210356;28;20674;-87
2022/06/09 04:45:16;;;;;;;2.83;2.20;;;;;;;17.00;97.63;97738.09;4207779;28;20654;-87
2022/06/09 04:47:19;;;;;;;5.40;2.70;;;;;;;17.00;97.68;97741.59;4212166;28;21035;-87
2022/06/09 04:49:24;;;;;;;4.80;2.50;;;;;;;17.04;97.94;97744.75;4218397;28;20705;-86
2022/06/09 04:51:27;;;;;;;3.23;2.47;;;;;;;17.08;98.10;97748.75;4202335;28;20722;-87
2022/06/09 04:53:30;;;;;;;5.63;2.60;;;;;;;17.11;97.93;97751.06;4211206;28;20640;-87
2022/06/09 04:55:33;;;;;;;4.00;2.60;;;;;;;17.11;97.77;97751.06;4225698;28;20644;-87
2022/06/09 04:57:37;;;;;;;4.33;2.80;;;;;;;17.14;97.89;97753.41;4220942;28;20733;-87
2022/06/09 04:59:40;;;;;;;3.93;2.90;;;;;;;17.18;97.64;97762.63;4223015;28;20615;-87
2022/06/09 05:01:45;;;;;;;3.60;2.60;;;;;;;17.19;97.09;97759.84;4203068;28;20626;-87
2022/06/09 05:03:50;;;;;;;5.93;3.17;;;;;;;17.19;98.07;97765.13;4207397;28;20773;-87
2022/06/09 05:05:58;;;;;;;3.67;3.13;;;;;;;17.18;96.75;97770.53;4218335;28;20629;-87
2022/06/09 05:08:01;;;;;;;6.10;3.67;;;;;;;17.15;97.18;97774.31;4202192;28;20656;-87
2022/06/09 05:10:05;;;;;;;5.90;3.30;;;;;;;17.12;97.25;97774.63;4202509;28;20624;-88
2022/06/09 05:12:08;;;;;;;6.03;3.70;;;;;;;17.11;97.17;97780.88;4219828;28;20634;-87
2022/06/09 05:14:40;;;;;;;4.30;3.43;;;;;;;17.10;97.24;97781.03;4231717;27;20666;-87
2022/06/09 05:16:48;;;;;;;4.80;3.50;;;;;;;17.09;96.84;97784.63;4216415;28;21222;-87
2022/06/09 05:18:51;;;;;;;4.97;3.73;;;;;;;17.04;96.61;97786.91;4212852;28;21293;-87
2022/06/09 05:20:56;;;;;;;4.80;4.00;;;;;;;17.01;96.79;97795.13;4203641;28;21008;-87
2022/06/09 05:23:00;;;;;;;4.63;3.80;;;;;;;16.98;96.04;97796.22;4219772;28;20766;-87
2022/06/09 05:25:06;;;;;;;5.90;3.90;;;;;;;16.98;97.89;97808.59;4216700;28;21107;-86
2022/06/09 05:27:11;;;;;;;8.83;4.60;;;;;;;16.96;97.81;97797.38;4222881;28;20668;-87
2022/06/09 05:29:14;;;;;;;5.23;4.07;;;;;;;16.98;97.44;97803.31;4202501;28;20630;-87
2022/06/09 05:31:17;;;;;;;5.67;4.27;;;;;;;16.98;97.91;97801.50;4227635;27;21003;-87
2022/06/09 05:33:22;;;;;;;5.13;3.90;;;;;;;17.01;97.60;97803.03;4210586;28;20634;-87
2022/06/09 05:35:25;;;;;;;6.13;3.80;;;;;;;17.04;97.14;97805.34;4212747;28;21093;-87
2022/06/09 05:44:50;;;;;;;5.73;4.03;;;;;;;17.07;97.93;97799.78;4211835;28;20633;-88
2022/06/09 05:44:52;;;;;;;5.97;3.63;;;;;;;17.02;95.53;97810.78;4219194;28;20673;-87
2022/06/09 05:46:55;;;;;;;5.27;3.57;;;;;;;17.01;95.58;97809.09;4223659;28;20724;-87
2022/06/09 05:48:59;;;;;;;6.20;3.97;;;;;;;17.03;95.05;97816.88;4210561;28;20637;-87
2022/06/09 05:51:02;;;;;;;5.90;3.60;;;;;;;17.06;96.11;97816.56;4205374;28;20623;-87
2022/06/09 05:53:06;;;;;;;6.80;3.70;;;;;;;17.10;95.88;97816.13;4213286;28;20645;-87
2022/06/09 05:55:11;;;;;;;5.23;3.80;;;;;;;17.11;95.46;97820.41;4212925;28;21039;-87
2022/06/09 05:57:17;;;;;;;7.33;4.00;;;;;;;17.20;94.93;97816.91;4207693;28;21051;-88
2022/06/09 05:59:20;;;;;;;5.70;3.73;;;;;;;17.29;95.05;97817.78;4201998;28;20650;-87
2022/06/09 06:01:23;;;;;;;5.23;4.47;;;;;;;17.28;93.24;97827.50;4216486;28;20720;-87
2022/06/09 06:03:27;;;;;;;11.03;4.00;;;;;;;17.25;94.03;97827.81;4198372;28;20706;-87
2022/06/09 06:08:09;;;;;;;9.50;4.13;;;;;;;17.20;94.88;97842.38;4217549;28;20683;-88
2022/06/09 06:10:14;;;;;;;6.10;4.20;;;;;;;17.21;94.88;97852.00;4233001;27;20654;-87
2022/06/09 06:12:17;;;;;;;6.77;4.57;;;;;;;17.25;95.10;97859.44;4204482;28;20631;-87
2022/06/09 06:14:22;;;;;;;6.07;3.90;;;;;;;17.25;93.01;97848.09;4202548;28;20620;-87
2022/06/09 06:16:26;;;;;;;5.00;3.57;;;;;;;17.26;92.56;97860.25;4210834;28;20606;-87
2022/06/09 06:18:38;;;;;;;6.50;4.17;;;;;;;17.29;92.37;97846.78;4209695;28;20618;-87
2022/06/09 06:20:41;;;;;;;7.20;3.93;;;;;;;17.36;92.62;97847.84;4219127;28;20649;-87
2022/06/09 06:22:44;;;;;;;6.37;3.80;;;;;;;17.46;93.19;97861.78;4202166;28;20675;-87
2022/06/09 06:24:47;;;;;;;6.77;4.00;;;;;;;17.54;92.94;97866.13;4218424;28;21029;-87
2022/06/09 06:26:52;;;;;;;5.03;3.60;;;;;;;17.64;92.83;97864.22;4211178;28;20684;-86
2022/06/09 06:28:55;;;;;;;4.70;3.63;;;;;;;17.70;92.18;97865.44;4227251;28;20618;-87
2022/06/09 06:30:58;;;;;;;15.30;4.30;;;;;;;17.72;92.31;97866.91;4222491;28;20638;-87
2022/06/09 06:33:01;;;;;;;5.87;3.93;;;;;;;17.78;91.38;97871.56;4209018;28;21043;-87
2022/06/09 06:35:20;;;;;;;5.83;3.70;;;;;;;17.83;92.31;97871.13;4213119;28;20641;-87
2022/06/09 06:37:23;;;;;;;6.57;4.23;;;;;;;17.84;91.59;97878.06;4215663;28;20881;-87
2022/06/09 06:39:26;;;;;;;5.50;4.20;;;;;;;17.82;91.77;97882.69;4222928;28;21261;-87
2022/06/09 06:41:30;;;;;;;6.80;3.50;;;;;;;17.79;90.45;97881.16;4211311;28;20627;-87
2022/06/09 06:43:34;;;;;;;7.80;4.47;;;;;;;17.77;90.89;97884.94;4212085;28;20662;-86
2022/06/09 06:45:38;;;;;;;7.30;4.17;;;;;;;17.73;90.24;97887.06;4212054;28;21028;-87
2022/06/09 06:47:41;;;;;;;5.77;4.10;;;;;;;17.75;91.28;97897.44;4222031;28;20627;-86
2022/06/09 06:49:45;;;;;;;9.33;3.93;;;;;;;17.84;90.32;97894.72;4213309;28;20623;-86
2022/06/09 06:51:49;;;;;;;5.60;3.93;;;;;;;17.96;90.54;97902.22;4224989;28;20626;-87
2022/06/09 06:53:52;;;;;;;4.33;3.93;;;;;;;18.14;90.06;97903.03;4208427;28;20711;-87
2022/06/09 06:55:55;;;;;;;5.17;3.37;;;;;;;18.22;89.56;97915.47;4210980;28;20629;-86
2022/06/09 06:57:58;;;;;;;5.80;3.70;;;;;;;18.19;88.42;97907.84;4209459;28;20636;-86
2022/06/09 07:00:04;;;;;;;5.70;3.47;;;;;;;18.15;88.15;97906.53;4206560;28;20636;-87
2022/06/09 07:02:10;;;;;;;4.30;3.40;;;;;;;18.18;88.46;97903.56;4211901;28;20647;-87
2022/06/09 07:04:29;;;;;;;4.20;3.00;;;;;;;18.24;89.09;97911.69;4198427;28;20656;-87
2022/06/09 07:06:33;;;;;;;6.37;3.13;;;;;;;18.54;87.80;97917.31;4218786;28;20628;-86
2022/06/09 07:08:36;;;;;;;5.57;3.03;;;;;;;18.76;87.22;97922.00;4209174;28;20622;-86
2022/06/09 07:10:39;;;;;;;6.67;3.10;;;;;;;19.25;84.22;97931.81;4214264;28;20708;-86
2022/06/09 07:12:43;;;;;;;7.43;3.60;;;;;;;19.78;86.54;97933.03;4220568;28;20720;-86
2022/06/09 07:14:46;;;;;;;4.70;2.77;;;;;;;20.16;83.84;97925.25;4218124;28;20644;-86
2022/06/09 07:16:51;;;;;;;4.40;3.30;;;;;;;20.72;81.53;97931.28;4225297;28;20623;-86
2022/06/09 07:18:54;;;;;;;10.80;3.13;;;;;;;21.14;79.59;97928.13;4220192;28;20620;-87
2022/06/09 07:20:58;;;;;;;5.60;2.93;;;;;;;21.58;78.93;97945.16;4200443;28;20728;-86
2022/06/09 07:23:01;;;;;;;6.80;3.30;;;;;;;21.57;78.09;97941.63;4220859;28;20671;-86
2022/06/09 07:25:05;;;;;;;4.10;2.37;;;;;;;21.31;76.33;97935.81;4202043;28;20736;-86
2022/06/09 07:27:09;;;;;;;6.57;2.57;;;;;;;21.80;76.28;97934.53;4209226;28;20653;-86
2022/06/09 07:29:12;;;;;;;4.60;2.70;;;;;;;22.16;75.69;97943.50;4224040;28;20630;-86
2022/06/09 07:31:15;;;;;;;5.20;2.60;;;;;;;21.84;74.11;97944.59;4221775;28;20638;-86
2022/06/09 07:33:19;;;;;;;5.53;2.90;;;;;;;21.48;74.13;97952.50;4212221;28;20642;-86
2022/06/09 07:35:25;;;;;;;5.23;2.33;;;;;;;21.84;75.60;97955.22;4220498;28;20832;-86
2022/06/09 07:37:31;;;;;;;4.43;2.80;;;;;;;22.10;73.24;97947.72;4221963;28;20619;-86
2022/06/09 07:39:52;;;;;;;4.40;2.80;;;;;;;22.37;74.57;97960.44;4226466;28;20721;-85
2022/06/09 07:41:56;;;;;;;5.17;2.67;;;;;;;22.76;73.56;97954.72;4222045;27;20635;-86
2022/06/09 07:44:00;;;;;;;4.73;2.20;;;;;;;23.28;72.58;97966.09;4217178;28;20661;-86
2022/06/09 07:46:04;;;;;;;5.90;2.20;;;;;;;23.47;69.94;97960.16;4229399;28;20657;-86
2022/06/09 07:48:08;;;;;;;4.93;2.93;;;;;;;22.95;68.78;97962.16;4225555;28;20627;-86
2022/06/09 07:50:25;;;;;;;7.50;2.60;;;;;;;22.40;70.41;97960.09;4218727;28;21038;-86
2022/06/09 07:52:28;;;;;;;6.00;2.57;;;;;;;22.16;72.81;97954.13;4213364;28;20618;-86
2022/06/09 07:54:31;;;;;;;5.83;2.33;;;;;;;22.29;70.51;97966.66;4215629;28;20623;-86
2022/06/09 07:56:35;;;;;;;5.57;2.20;;;;;;;22.16;71.25;97962.09;4235359;27;20630;-86
2022/06/09 07:58:38;;;;;;;4.87;2.30;;;;;;;22.09;73.38;97958.53;4220381;28;20647;-86
2022/06/09 08:00:42;;;;;;;9.33;2.50;;;;;;;21.90;72.47;97953.69;4227166;28;20618;-85
2022/06/09 08:02:46;;;;;;;3.33;2.27;;;;;;;21.77;73.60;97964.09;4220181;28;21232;-86
2022/06/09 08:05:18;;;;;;;4.23;2.10;;;;;;;21.57;72.62;97954.09;4150233;28;20669;-86
2022/06/09 08:07:22;;;;;;;3.80;2.20;;;;;;;21.30;73.81;97952.75;4150510;28;21090;-86
2022/06/09 08:09:26;;;;;;;5.23;2.53;;;;;;;20.97;74.14;97957.53;4166900;28;20719;-86
2022/06/09 08:11:32;;;;;;;6.03;3.20;;;;;;;20.60;74.30;97953.84;4209443;28;20726;-86
2022/06/09 08:13:36;;;;;;;4.53;3.10;;;;;;;20.36;76.77;97953.88;4228790;28;20647;-86
2022/06/09 08:15:41;;;;;;;7.10;3.17;;;;;;;20.18;77.09;97963.03;4225733;28;20665;-86
2022/06/09 08:17:44;;;;;;;6.13;2.90;;;;;;;19.99;79.30;97966.00;4224313;28;20632;-86
2022/06/09 08:19:48;;;;;;;5.43;3.90;;;;;;;19.84;79.67;97964.97;4222287;28;20616;-85
2022/06/09 08:21:51;;;;;;;10.70;4.37;;;;;;;19.74;80.65;97969.59;4202262;28;21076;-86
2022/06/09 08:23:56;;;;;;;7.70;4.20;;;;;;;19.67;80.59;97963.28;4207578;28;20655;-86
2022/06/09 08:26:18;;;;;;;7.47;4.57;;;;;;;19.68;81.66;97962.31;4222662;28;20613;-86
2022/06/09 08:28:21;;;;;;;5.37;4.70;;;;;;;20.13;81.03;97966.16;4214279;28;20668;-85
2022/06/09 08:30:37;;;;;;;9.20;5.40;;;;;;;20.58;81.16;97969.06;4207088;28;20730;-86
2022/06/09 08:32:41;;;;;;;6.03;4.40;;;;;;;20.54;79.80;97967.75;4209875;28;20626;-86
2022/06/09 08:34:45;;;;;;;5.20;4.50;;;;;;;20.45;80.61;97961.63;4214392;28;20628;-86
2022/06/09 08:36:49;;;;;;;6.67;4.40;;;;;;;20.82;80.72;97967.19;4228222;28;21067;-86
2022/06/09 08:38:52;;;;;;;8.00;4.53;;;;;;;20.91;78.47;97963.53;4202287;28;21061;-85
2022/06/09 08:41:00;;;;;;;6.90;4.50;;;;;;;21.40;79.68;97971.91;4211943;28;20725;-86
2022/06/09 08:43:14;;;;;;;4.73;3.37;;;;;;;21.85;75.22;97974.66;4221914;28;20688;-86
2022/06/09 08:45:54;;;;;;;5.83;3.60;;;;;;;22.37;76.01;97987.03;4146985;28;20712;-86
2022/06/09 08:47:59;;;;;;;4.77;2.97;;;;;;;22.87;73.05;97977.38;4132900;28;20626;-86
2022/06/09 08:50:06;;;;;;;4.10;2.50;;;;;;;23.13;72.49;97981.25;4147211;28;20618;-86
2022/06/09 08:52:17;;;;;;;5.60;2.70;;;;;;;22.88;70.43;97979.03;4146854;28;21055;-85
2022/06/09 08:54:26;;;;;;;3.07;2.27;;;;;;;22.43;71.20;97979.19;4125000;28;20642;-86
2022/06/09 08:56:32;;;;;;;4.93;2.43;;;;;;;21.93;72.68;97980.72;4191396;28;20630;-86
2022/06/09 08:58:44;;;;;;;5.03;2.50;;;;;;;21.48;73.46;97974.56;4230490;28;20621;-86
2022/06/09 09:00:50;;;;;;;3.70;1.80;;;;;;;21.17;74.58;97972.88;4210992;28;20631;-86
2022/06/09 09:02:59;;;;;;;9.67;2.33;;;;;;;21.01;74.77;97977.44;4218947;28;20624;-86
2022/06/09 09:05:12;;;;;;;4.43;2.47;;;;;;;20.90;77.23;97975.97;4216983;28;20677;-85
2022/06/09 09:07:23;;;;;;;7.30;2.50;;;;;;;20.84;75.68;97983.78;4211327;28;20633;-85
2022/06/09 09:09:28;;;;;;;6.87;2.90;;;;;;;20.88;73.55;97982.44;4211647;28;21208;-85
2022/06/09 09:11:52;;;;;;;8.03;2.60;;;;;;;21.10;75.31;97985.16;4216130;28;20625;-86
2022/06/09 09:13:59;;;;;;;5.53;2.47;;;;;;;21.29;73.66;97985.59;4211738;28;20674;-85
2022/06/09 09:16:11;;;;;;;3.90;1.93;;;;;;;21.15;70.25;97984.66;4204889;28;20654;-85
2022/06/09 09:18:23;;;;;;;4.60;2.30;;;;;;;21.00;73.57;97981.91;4209589;28;20630;-86
2022/06/09 09:20:30;;;;;;;6.73;2.43;;;;;;;20.85;73.97;97985.41;4205855;28;20706;-85
2022/06/09 09:22:39;;;;;;;5.50;2.13;;;;;;;20.80;74.68;97979.81;4218303;28;20653;-86
2022/06/09 09:24:49;;;;;;;5.00;2.03;;;;;;;20.78;74.69;97984.47;4216437;28;20622;-86
2022/06/09 09:27:04;;;;;;;4.33;2.60;;;;;;;20.81;75.48;97984.13;4216223;27;21196;-86
2022/06/09 09:29:13;;;;;;;7.13;2.17;;;;;;;21.23;76.75;97995.22;4222030;28;20631;-85
2022/06/09 09:31:26;;;;;;;5.93;2.50;;;;;;;21.41;73.72;97999.31;4227846;28;20633;-86
2022/06/09 09:33:29;;;;;;;7.20;2.20;;;;;;;21.48;74.08;98001.09;4217025;28;20655;-85
2022/06/09 09:35:35;;;;;;;5.07;2.20;;;;;;;21.44;73.78;97999.78;4230025;28;20613;-86
2022/06/09 09:37:43;;;;;;;5.77;2.13;;;;;;;21.63;73.75;98004.66;4219865;28;20631;-86
2022/06/09 09:39:50;;;;;;;4.40;2.07;;;;;;;21.72;74.45;98008.94;4235172;27;20626;-86
2022/06/09 09:41:59;;;;;;;3.07;2.30;;;;;;;21.63;70.34;98002.00;4217139;28;20625;-85
2022/06/09 09:44:14;;;;;;;5.07;2.80;;;;;;;21.62;70.15;98005.69;4221347;28;21244;-85
2022/06/09 09:46:34;;;;;;;7.03;3.10;;;;;;;21.89;73.79;98019.28;4217415;28;20650;-85
2022/06/09 09:48:41;;;;;;;4.80;2.70;;;;;;;22.29;73.78;98021.66;4207619;28;20619;-86
2022/06/09 09:50:48;;;;;;;4.50;2.40;;;;;;;;;;4226300;28;20668;-86
2022/06/09 09:53:21;;;;;;;8.07;3.10;;;;;;;22.14;71.36;98014.63;4196117;28;21247;-86
2022/06/09 09:55:34;;;;;;;3.17;2.20;;;;;;;21.95;70.55;98004.44;4210056;28;20621;-86
2022/06/09 09:57:38;;;;;;;4.27;2.20;;;;;;;22.02;72.07;98010.72;4209686;28;20623;-85
2022/06/09 09:59:47;;;;;;;3.47;2.07;;;;;;;22.12;70.08;98006.81;4221592;28;20674;-86
2022/06/09 10:09:10;;;;;;;4.53;2.37;;;;;;;22.53;68.00;98001.00;4212997;28;20612;-84
2022/06/09 10:13:59;;;;;;;5.60;2.33;;;;;;;22.02;70.56;98008.06;4220034;28;20714;-85